Time;durP1;ratioP1;P1;durP2;ratioP2;P2;SDS_P1;SDS_P2;PMS_P1;PMS_P2;Temp;Humidity;BMP_temperature;BMP_pressure;BME280_temperature;BME280_humidity;BME280_pressure;Samples;Min_cycle;Max_cycle;Signal;HPM_P1;HPM_P2
2023/09/21 00:02:49;;;;;;;;;;;;;;;17.12;100.00;99643.71;180092;1265;45717;-62
2023/09/21 00:06:53;;;;;;;;;;;;;;;17.12;100.00;99639.34;180151;1265;44344;-61
2023/09/21 00:11:05;;;;;;;;;;;;;;;17.13;100.00;99643.04;179992;1265;43471;-61
2023/09/21 00:15:09;;;;;;;;;;;;;;;17.17;100.00;99642.89;179855;1265;58206;-61
2023/09/21 00:19:17;;;;;;;;;;;;;;;17.22;100.00;99640.30;179790;1265;43499;-61
2023/09/21 00:23:25;;;;;;;;;;;;;;;17.25;100.00;99635.13;179713;1265;43361;-61
2023/09/21 00:32:16;;;;;;;;;;;;;;;17.32;100.00;99626.84;179628;1264;43353;-61
2023/09/21 00:36:35;;;;;;;;;;;;;;;17.33;100.00;99626.02;179710;1265;57683;-61
2023/09/21 00:40:38;;;;;;;;;;;;;;;17.32;100.00;99623.65;179501;1265;45759;-60
2023/09/21 00:44:45;;;;;;;;;;;;;;;17.27;100.00;99620.90;179861;1265;45794;-61
2023/09/21 00:48:50;;;;;;;;;;;;;;;17.26;100.00;99615.59;179708;1267;44173;-61
2023/09/21 00:52:54;;;;;;;;;;;;;;;17.22;100.00;99613.46;179551;1265;45770;-61
2023/09/21 00:57:00;;;;;;;;;;;;;;;17.11;100.00;99612.13;179063;1266;386054;-60
2023/09/21 01:01:05;;;;;;;;;;;;;;;17.01;100.00;99611.11;179361;1267;44745;-60
2023/09/21 01:05:14;;;;;;;;;;;;;;;16.95;100.00;99607.20;179700;1263;43300;-60
2023/09/21 01:09:17;;;;;;;;;;;;;;;16.89;100.00;99604.84;179823;1263;44156;-61
2023/09/21 01:13:20;;;;;;;;;;;;;;;16.86;100.00;99602.72;179779;1265;45816;-60
2023/09/21 01:17:23;;;;;;;;;;;;;;;16.83;100.00;99598.55;179829;1265;57248;-60
2023/09/21 01:21:40;;;;;;;;;;;;;;;16.78;100.00;99592.48;180179;1266;43442;-60
2023/09/21 01:25:46;;;;;;;;;;;;;;;16.80;100.00;99586.27;180284;1265;45777;-60
2023/09/21 01:29:52;;;;;;;;;;;;;;;16.81;100.00;99578.27;180137;1264;43276;-60
2023/09/21 01:33:58;;;;;;;;;;;;;;;16.74;100.00;99572.96;179849;1265;44848;-60
2023/09/21 01:38:04;;;;;;;;;;;;;;;16.64;100.00;99567.52;179840;1264;57426;-60
2023/09/21 01:42:08;;;;;;;;;;;;;;;16.56;100.00;99568.23;179803;1265;45608;-61
2023/09/21 01:46:12;;;;;;;;;;;;;;;16.51;100.00;99565.80;180029;1265;43365;-60
2023/09/21 01:50:17;;;;;;;;;;;;;;;16.54;100.00;99563.64;179866;1265;43673;-60
2023/09/21 01:54:21;;;;;;;;;;;;;;;16.55;100.00;99561.73;179964;1265;43891;-60
2023/09/21 01:58:25;;;;;;;;;;;;;;;16.50;100.00;99557.92;179934;1264;58714;-61
2023/09/21 02:02:28;;;;;;;;;;;;;;;16.43;100.00;99549.70;179939;1265;43293;-60
2023/09/21 02:06:31;;;;;;;;;;;;;;;16.42;100.00;99545.26;179860;1264;45809;-60
2023/09/21 02:10:36;;;;;;;;;;;;;;;16.31;100.00;99544.39;179874;1264;43360;-60
2023/09/21 02:14:39;;;;;;;;;;;;;;;16.28;100.00;99541.41;179867;1265;43318;-60
2023/09/21 02:18:44;;;;;;;;;;;;;;;16.25;100.00;99536.60;179689;1266;58250;-61
2023/09/21 02:22:51;;;;;;;;;;;;;;;16.30;100.00;99535.41;179791;1266;44186;-60
2023/09/21 02:26:54;;;;;;;;;;;;;;;16.34;100.00;99528.09;179816;1267;43259;-60
2023/09/21 02:30:58;;;;;;;;;;;;;;;16.37;100.00;99529.17;179849;1264;45759;-60
2023/09/21 02:35:03;;;;;;;;;;;;;;;16.42;100.00;99524.28;179698;1266;43362;-60
2023/09/21 02:39:12;;;;;;;;;;;;;;;16.42;100.00;99521.54;179780;1265;58207;-60
2023/09/21 02:43:15;;;;;;;;;;;;;;;16.35;100.00;99516.66;179807;1265;45759;-60
2023/09/21 02:47:21;;;;;;;;;;;;;;;16.37;100.00;99511.61;179728;1266;45797;-60
2023/09/21 02:51:32;;;;;;;;;;;;;;;16.38;100.00;99510.93;179774;1264;43338;-60
2023/09/21 02:55:44;;;;;;;;;;;;;;;16.41;100.00;99512.58;179696;1265;45832;-61
2023/09/21 02:59:49;;;;;;;;;;;;;;;16.41;100.00;99509.66;179699;1264;58294;-62
2023/09/21 03:03:52;;;;;;;;;;;;;;;16.43;100.00;99510.39;179698;1265;45821;-61
2023/09/21 03:07:57;;;;;;;;;;;;;;;16.47;100.00;99507.26;179685;1265;45717;-61
2023/09/21 03:12:00;;;;;;;;;;;;;;;16.51;100.00;99499.07;179371;1264;43713;-61
2023/09/21 03:16:12;;;;;;;;;;;;;;;16.53;100.00;99500.05;179515;1265;45873;-62
2023/09/21 03:20:32;;;;;;;;;;;;;;;16.55;100.00;99498.21;180152;1265;58212;-62
2023/09/21 03:24:39;;;;;;;;;;;;;;;16.57;100.00;99498.16;180142;1265;43796;-61
2023/09/21 03:28:44;;;;;;;;;;;;;;;16.62;100.00;99497.16;179801;1265;45779;-61
2023/09/21 03:32:48;;;;;;;;;;;;;;;16.62;100.00;99494.23;179722;1264;44649;-61
2023/09/21 03:36:52;;;;;;;;;;;;;;;16.58;100.00;99485.33;179870;1265;43658;-61
2023/09/21 03:41:36;;;;;;;;;;;;;;;16.56;100.00;99480.02;179683;1264;57495;-64
2023/09/21 03:45:41;;;;;;;;;;;;;;;16.60;100.00;99476.52;179686;1266;43693;-61
2023/09/21 03:49:52;;;;;;;;;;;;;;;16.69;100.00;99477.21;179687;1265;44827;-61
2023/09/21 03:53:57;;;;;;;;;;;;;;;16.74;100.00;99473.41;179768;1265;44649;-61
2023/09/21 03:58:02;;;;;;;;;;;;;;;16.77;100.00;99468.03;179831;1264;44797;-61
2023/09/21 04:02:08;;;;;;;;;;;;;;;16.78;100.00;99464.20;179677;1265;58979;-61
2023/09/21 04:06:11;;;;;;;;;;;;;;;16.75;100.00;99461.30;179647;1265;43306;-61
2023/09/21 04:10:16;;;;;;;;;;;;;;;16.67;100.00;99461.53;179742;1265;43342;-61
2023/09/21 04:14:20;;;;;;;;;;;;;;;16.65;100.00;99460.11;179621;1265;45739;-61
2023/09/21 04:18:23;;;;;;;;;;;;;;;16.64;100.00;99458.60;179601;1265;45718;-61
2023/09/21 04:22:31;;;;;;;;;;;;;;;16.60;100.00;99451.28;179669;1264;58217;-61
2023/09/21 04:26:34;;;;;;;;;;;;;;;16.56;100.00;99444.55;179803;1265;45802;-60
2023/09/21 04:30:39;;;;;;;;;;;;;;;16.53;100.00;99443.67;179844;1267;43280;-60
2023/09/21 04:34:42;;;;;;;;;;;;;;;16.52;100.00;99440.52;179473;1264;45042;-61
2023/09/21 04:38:48;;;;;;;;;;;;;;;16.59;100.00;99440.81;179356;1265;44435;-61
2023/09/21 04:42:56;;;;;;;;;;;;;;;16.62;100.00;99440.77;179491;1265;57138;-61
2023/09/21 04:47:02;;;;;;;;;;;;;;;16.65;100.00;99440.06;179548;1265;46041;-61
2023/09/21 04:51:08;;;;;;;;;;;;;;;16.66;100.00;99443.21;179566;1265;43454;-61
2023/09/21 04:55:16;;;;;;;;;;;;;;;16.68;100.00;99442.45;179627;1265;44405;-61
2023/09/21 04:59:20;;;;;;;;;;;;;;;16.73;100.00;99442.86;179568;1265;45925;-61
2023/09/21 05:03:24;;;;;;;;;;;;;;;17.04;100.00;99445.48;179537;1265;58506;-61
2023/09/21 05:07:29;;;;;;;;;;;;;;;17.46;100.00;99440.86;179515;1265;46433;-61
2023/09/21 05:11:38;;;;;;;;;;;;;;;17.86;100.00;99439.71;180100;1265;43377;-61
2023/09/21 05:15:45;;;;;;;;;;;;;;;18.23;100.00;99439.55;180441;1265;44621;-62
2023/09/21 05:19:53;;;;;;;;;;;;;;;18.65;100.00;99440.15;180487;1266;43273;-61
2023/09/21 05:29:08;;;;;;;;;;;;;;;19.72;100.00;99429.01;179891;1265;45993;-61
2023/09/21 05:33:11;;;;;;;;;;;;;;;20.05;100.00;99425.91;179739;1265;45925;-61
2023/09/21 05:37:15;;;;;;;;;;;;;;;20.24;99.87;99429.09;179693;1265;46227;-61
2023/09/21 05:41:22;;;;;;;;;;;;;;;20.40;98.52;99425.85;179906;1264;45746;-62
2023/09/21 05:45:27;;;;;;;;;;;;;;;20.49;98.12;99422.14;179772;1267;58223;-61
2023/09/21 05:49:32;;;;;;;;;;;;;;;20.56;97.53;99422.79;179784;1265;45723;-63
2023/09/21 05:53:46;;;;;;;;;;;;;;;20.68;97.18;99424.10;179740;1265;43558;-62
2023/09/21 05:57:49;;;;;;;;;;;;;;;20.90;96.64;99423.18;179804;1265;44732;-62
2023/09/21 06:02:00;;;;;;;;;;;;;;;21.07;96.43;99425.42;179785;1267;43248;-61
2023/09/21 06:06:06;;;;;;;;;;;;;;;21.25;96.17;99426.53;179634;1265;58438;-61
2023/09/21 06:10:11;;;;;;;;;;;;;;;21.47;94.78;99427.80;179731;1265;45994;-62
2023/09/21 06:14:19;;;;;;;;;;;;;;;21.58;94.42;99430.77;179740;1265;43261;-61
2023/09/21 06:18:23;;;;;;;;;;;;;;;21.63;93.51;99430.82;179595;1267;43403;-62
2023/09/21 06:22:34;;;;;;;;;;;;;;;21.64;94.12;99424.79;179779;1265;44470;-62
2023/09/21 06:26:38;;;;;;;;;;;;;;;21.61;94.40;99424.54;179713;1265;59165;-61
2023/09/21 06:30:41;;;;;;;;;;;;;;;21.59;94.74;99421.07;179926;1265;48789;-62
2023/09/21 06:34:45;;;;;;;;;;;;;;;21.62;95.64;99415.58;180151;1266;43592;-62
2023/09/21 06:38:49;;;;;;;;;;;;;;;21.69;95.26;99409.60;180193;1267;43372;-62
2023/09/21 06:42:53;;;;;;;;;;;;;;;21.69;95.43;99407.02;180025;1265;45764;-62
2023/09/21 06:46:57;;;;;;;;;;;;;;;21.73;95.26;99408.16;179892;1266;58207;-62
2023/09/21 07:00:59;;;;;;;;;;;;;;;22.05;94.61;99400.83;151335;1260;84372;-60
2023/09/21 07:05:19;;;;;;;;;;;;;;;22.28;93.67;99398.07;169894;1264;84695;-61
2023/09/21 07:09:23;;;;;;;;;;;;;;;22.46;93.37;99392.05;181253;1263;58475;-61
2023/09/21 07:13:26;;;;;;;;;;;;;;;22.59;93.71;99387.45;181272;1264;42866;-61
2023/09/21 07:17:29;;;;;;;;;;;;;;;22.74;93.41;99386.02;181211;1264;43515;-61
2023/09/21 07:21:32;;;;;;;;;;;;;;;22.86;92.11;99383.52;181213;1264;42854;-61
2023/09/21 07:25:35;;;;;;;;;;;;;;;22.99;92.17;99380.34;181115;1263;42823;-61
2023/09/21 07:29:39;;;;;;;;;;;;;;;23.15;91.63;99376.43;181112;1264;58201;-61
2023/09/21 07:33:58;;;;;;;;;;;;;;;23.28;91.92;99377.45;181161;1264;42937;-60
2023/09/21 07:38:01;;;;;;;;;;;;;;;23.38;92.64;99371.23;181197;1263;42841;-60
2023/09/21 07:42:10;;;;;;;;;;;;;;;23.46;92.77;99370.11;181160;1264;43464;-60
2023/09/21 07:46:16;;;;;;;;;;;;;;;23.59;91.71;99365.73;181202;1263;42799;-61
2023/09/21 07:50:34;;;;;;;;;;;;;;;23.66;91.42;99364.48;181150;1264;58158;-61
2023/09/21 07:54:37;;;;;;;;;;;;;;;23.80;91.62;99359.31;181190;1263;42852;-61
2023/09/21 07:58:49;;;;;;;;;;;;;;;24.00;90.61;99358.75;181204;1263;42893;-61
2023/09/21 08:02:56;;;;;;;;;;;;;;;24.25;89.31;99356.64;181284;1263;42830;-61
2023/09/21 08:07:00;;;;;;;;;;;;;;;24.54;88.40;99354.80;181202;1264;44233;-61
2023/09/21 08:11:03;;;;;;;;;;;;;;;24.84;89.31;99354.98;181152;1264;58346;-62
2023/09/21 08:15:10;;;;;;;;;;;;;;;25.12;87.53;99347.13;181226;1264;42816;-61
2023/09/21 08:19:13;;;;;;;;;;;;;;;25.39;84.15;99336.98;181165;1264;42775;-62
2023/09/21 08:23:17;;;;;;;;;;;;;;;25.65;81.80;99328.91;181197;1263;43083;-61
2023/09/21 08:27:47;;;;;;;;;;;;;;;25.89;79.49;99324.94;181177;1264;42856;-62
2023/09/21 08:31:50;;;;;;;;;;;;;;;26.02;77.72;99317.16;181203;1264;57059;-62
2023/09/21 08:35:54;;;;;;;;;;;;;;;26.13;76.98;99313.21;181204;1263;43324;-63
2023/09/21 08:39:57;;;;;;;;;;;;;;;26.14;76.81;99311.71;181232;1264;43217;-61
2023/09/21 08:44:03;;;;;;;;;;;;;;;26.29;76.31;99311.16;181247;1264;43470;-62
2023/09/21 08:48:06;;;;;;;;;;;;;;;26.28;75.63;99307.65;181214;1263;42845;-62
2023/09/21 08:52:15;;;;;;;;;;;;;;;26.18;74.40;99300.65;181157;1264;57454;-62
2023/09/21 08:56:18;;;;;;;;;;;;;;;26.15;76.79;99295.42;181127;1264;43595;-60
2023/09/21 09:00:26;;;;;;;;;;;;;;;26.29;74.01;99295.84;181190;1264;42821;-61
2023/09/21 09:04:29;;;;;;;;;;;;;;;26.43;74.07;99297.41;181156;1264;42996;-61
2023/09/21 09:08:33;;;;;;;;;;;;;;;26.63;74.14;99299.38;181152;1263;42774;-61
2023/09/21 09:12:37;;;;;;;;;;;;;;;26.77;73.07;99292.80;181217;1264;57814;-61
2023/09/21 09:16:40;;;;;;;;;;;;;;;26.90;70.61;99288.48;181247;1264;42817;-61
2023/09/21 09:20:44;;;;;;;;;;;;;;;26.99;69.74;99279.67;181199;1264;43278;-61
2023/09/21 09:25:10;;;;;;;;;;;;;;;27.11;70.44;99277.04;181282;1263;43890;-60
2023/09/21 09:29:13;;;;;;;;;;;;;;;27.26;69.01;99273.27;181267;1264;42857;-61
2023/09/21 09:33:26;;;;;;;;;;;;;;;27.36;70.74;99266.86;181190;1264;57815;-61
2023/09/21 09:37:29;;;;;;;;;;;;;;;27.47;70.13;99266.71;181176;1264;43440;-60
2023/09/21 09:41:32;;;;;;;;;;;;;;;27.49;69.10;99266.29;181259;1264;42809;-61
2023/09/21 09:45:38;;;;;;;;;;;;;;;27.54;68.74;99260.23;181158;1265;42899;-61
2023/09/21 09:49:47;;;;;;;;;;;;;;;27.71;69.05;99256.77;181217;1264;42783;-61
2023/09/21 09:53:52;;;;;;;;;;;;;;;27.91;67.53;99254.58;181255;1263;58540;-61
2023/09/21 09:57:55;;;;;;;;;;;;;;;28.01;65.60;99253.20;181250;1263;43245;-60
2023/09/21 10:01:59;;;;;;;;;;;;;;;28.03;65.38;99246.38;181270;1263;42783;-60
2023/09/21 10:06:03;;;;;;;;;;;;;;;27.97;64.00;99241.27;181252;1265;43554;-60
2023/09/21 10:14:48;;;;;;;;;;;;;;;28.07;62.36;99234.41;181214;1263;57812;-60
2023/09/21 10:18:53;;;;;;;;;;;;;;;28.14;64.35;99227.56;181223;1264;42944;-60
2023/09/21 10:22:59;;;;;;;;;;;;;;;28.28;64.34;99226.42;181181;1264;43471;-60
2023/09/21 10:27:05;;;;;;;;;;;;;;;28.35;62.78;99221.14;181138;1264;42925;-61
2023/09/21 10:31:11;;;;;;;;;;;;;;;28.40;61.92;99214.91;181178;1263;43624;-60
2023/09/21 10:35:55;;;;;;;;;;;;;;;28.49;62.69;99208.85;181236;1263;59353;-60
2023/09/21 10:39:58;;;;;;;;;;;;;;;28.52;60.84;99198.95;180670;1271;43548;-60
2023/09/21 10:44:06;;;;;;;;;;;;;;;28.46;59.15;99196.82;180712;1272;42913;-60
2023/09/21 10:48:10;;;;;;;;;;;;;;;28.42;59.60;99189.65;180712;1271;42891;-61
2023/09/21 10:52:14;;;;;;;;;;;;;;;28.52;61.34;99195.02;180518;1274;42973;-60
2023/09/21 10:56:17;;;;;;;;;;;;;;;28.55;59.10;99196.55;180639;1271;58164;-61
2023/09/21 11:00:21;;;;;;;;;;;;;;;28.56;59.92;99188.02;180678;1272;42874;-60
2023/09/21 11:04:25;;;;;;;;;;;;;;;28.48;59.19;99180.35;180565;1272;43750;-60
2023/09/21 11:08:30;;;;;;;;;;;;;;;28.54;59.82;99178.61;180631;1272;42878;-60
2023/09/21 11:12:33;;;;;;;;;;;;;;;28.65;58.98;99180.63;180831;1264;42817;-60
2023/09/21 11:16:36;;;;;;;;;;;;;;;28.75;58.74;99170.14;181198;1264;57782;-60
2023/09/21 11:20:41;;;;;;;;;;;;;;;28.76;61.12;99158.14;181098;1264;43666;-60
2023/09/21 11:24:45;;;;;;;;;;;;;;;28.74;61.64;99153.17;181276;1264;43413;-60
2023/09/21 11:28:57;;;;;;;;;;;;;;;28.73;57.77;99147.48;181255;1264;42920;-60
2023/09/21 11:33:00;;;;;;;;;;;;;;;28.60;58.75;99144.91;181171;1264;43560;-60
2023/09/21 11:37:05;;;;;;;;;;;;;;;28.55;60.08;99145.25;181241;1264;58122;-61
2023/09/21 11:41:09;;;;;;;;;;;;;;;28.65;59.68;99133.30;181259;1266;42801;-60
2023/09/21 11:45:25;;;;;;;;;;;;;;;28.73;61.13;99126.31;181263;1264;42823;-60
2023/09/21 11:49:52;;;;;;;;;;;;;;;28.82;59.73;99116.73;181229;1264;43574;-60
2023/09/21 11:54:00;;;;;;;;;;;;;;;28.82;59.04;99107.70;181335;1263;43455;-60
2023/09/21 11:58:13;;;;;;;;;;;;;;;28.80;58.64;99101.52;181242;1264;57950;-61
2023/09/21 12:02:17;;;;;;;;;;;;;;;28.90;57.59;99101.30;181205;1264;43583;-60
2023/09/21 12:06:20;;;;;;;;;;;;;;;28.73;57.26;99095.45;181258;1263;42939;-61
2023/09/21 12:10:23;;;;;;;;;;;;;;;28.82;57.30;99088.71;181285;1263;42867;-61
2023/09/21 12:14:26;;;;;;;;;;;;;;;28.87;57.91;99086.19;181210;1264;42827;-60
2023/09/21 12:18:29;;;;;;;;;;;;;;;28.94;58.89;99085.70;181267;1264;58441;-61
2023/09/21 12:22:42;;;;;;;;;;;;;;;28.97;59.75;99083.98;181216;1263;43344;-60
2023/09/21 12:26:45;;;;;;;;;;;;;;;28.94;57.74;99079.45;181301;1263;43368;-61
2023/09/21 12:30:48;;;;;;;;;;;;;;;28.88;59.58;99077.49;181256;1264;43529;-60
2023/09/21 12:34:54;;;;;;;;;;;;;;;28.76;57.89;99073.84;181227;1263;43199;-60
2023/09/21 12:38:58;;;;;;;;;;;;;;;28.60;58.26;99071.55;181259;1264;58127;-61
2023/09/21 12:43:02;;;;;;;;;;;;;;;28.38;57.81;99070.91;181242;1265;42908;-60
2023/09/21 12:47:05;;;;;;;;;;;;;;;28.35;58.47;99071.35;181237;1264;43592;-60
2023/09/21 12:51:08;;;;;;;;;;;;;;;28.33;57.93;99065.45;181224;1264;43294;-61
2023/09/21 12:55:11;;;;;;;;;;;;;;;28.23;58.41;99064.23;181225;1264;42926;-61
2023/09/21 12:59:14;;;;;;;;;;;;;;;28.13;59.14;99062.95;179394;1264;2497200;-60
2023/09/21 13:03:17;;;;;;;;;;;;;;;28.02;60.51;99065.84;181083;1267;43200;-60
2023/09/21 13:07:24;;;;;;;;;;;;;;;27.99;61.70;99062.17;181157;1265;42825;-60
2023/09/21 13:11:27;;;;;;;;;;;;;;;27.97;59.61;99061.30;181165;1266;42868;-60
2023/09/21 13:15:30;;;;;;;;;;;;;;;27.85;61.57;99059.69;181184;1265;43508;-60
2023/09/21 13:19:39;;;;;;;;;;;;;;;27.82;61.77;99056.47;181161;1264;58228;-60
2023/09/21 13:23:42;;;;;;;;;;;;;;;27.78;64.09;99052.86;181160;1265;42904;-61
2023/09/21 13:27:45;;;;;;;;;;;;;;;27.73;63.44;99045.10;181146;1266;42767;-61
2023/09/21 13:31:54;;;;;;;;;;;;;;;27.72;64.26;99046.73;181104;1265;42841;-62
2023/09/21 13:35:58;;;;;;;;;;;;;;;27.78;65.10;99047.29;181148;1264;42821;-60
2023/09/21 13:40:01;;;;;;;;;;;;;;;27.82;63.42;99045.16;181163;1264;57703;-60
2023/09/21 13:44:05;;;;;;;;;;;;;;;27.94;62.51;99045.11;181181;1265;43452;-60
2023/09/21 13:48:13;;;;;;;;;;;;;;;27.99;62.68;99034.96;181139;1265;43046;-60
2023/09/21 13:52:17;;;;;;;;;;;;;;;27.97;61.65;99032.34;181130;1265;43540;-61
2023/09/21 13:56:20;;;;;;;;;;;;;;;27.90;61.00;99035.84;181160;1265;42889;-60
2023/09/21 14:00:23;;;;;;;;;;;;;;;27.89;62.35;99028.23;181151;1266;57687;-60
2023/09/21 14:04:51;;;;;;;;;;;;;;;27.97;61.73;99023.27;181143;1265;42834;-60
2023/09/21 14:08:55;;;;;;;;;;;;;;;27.93;62.26;99019.94;181258;1265;42793;-61
2023/09/21 14:12:58;;;;;;;;;;;;;;;27.87;61.39;99013.97;181266;1264;43255;-60
2023/09/21 14:17:01;;;;;;;;;;;;;;;27.79;63.09;99003.92;181206;1264;42831;-62
2023/09/21 14:21:04;;;;;;;;;;;;;;;27.74;62.95;98998.45;181202;1264;58161;-61
2023/09/21 14:25:09;;;;;;;;;;;;;;;27.69;63.20;98993.84;181192;1264;43276;-60
2023/09/21 14:29:11;;;;;;;;;;;;;;;27.62;64.40;98996.57;181221;1264;43539;-60
2023/09/21 14:33:15;;;;;;;;;;;;;;;27.67;64.78;98996.79;181225;1264;42870;-60
2023/09/21 14:37:18;;;;;;;;;;;;;;;27.67;64.33;98995.09;181221;1263;43789;-60
2023/09/21 14:41:21;;;;;;;;;;;;;;;27.71;63.93;98988.50;181216;1264;58040;-61
2023/09/21 14:45:24;;;;;;;;;;;;;;;27.74;63.19;98985.50;181070;1264;42829;-61
2023/09/21 14:49:27;;;;;;;;;;;;;;;27.84;64.93;98982.23;181218;1264;43452;-60
2023/09/21 14:53:31;;;;;;;;;;;;;;;27.88;65.35;98977.73;181229;1264;42952;-61
2023/09/21 14:57:37;;;;;;;;;;;;;;;28.00;63.52;98981.89;181165;1265;43414;-60
2023/09/21 15:01:40;;;;;;;;;;;;;;;28.00;62.80;98977.52;181164;1264;57974;-60
2023/09/21 15:05:45;;;;;;;;;;;;;;;27.94;63.24;98977.25;181216;1264;43523;-61
2023/09/21 15:09:48;;;;;;;;;;;;;;;27.84;65.36;98977.41;181154;1264;42794;-60
2023/09/21 15:13:52;;;;;;;;;;;;;;;27.69;65.06;98975.17;181144;1264;43405;-61
2023/09/21 15:18:08;;;;;;;;;;;;;;;27.48;65.67;98970.20;181196;1264;43224;-61
2023/09/21 15:22:17;;;;;;;;;;;;;;;27.33;64.85;98970.91;181227;1264;58029;-61
2023/09/21 15:26:20;;;;;;;;;;;;;;;27.17;66.01;98967.82;181188;1264;43506;-60
2023/09/21 15:30:23;;;;;;;;;;;;;;;27.07;66.21;98965.92;181113;1265;43501;-60
2023/09/21 15:34:27;;;;;;;;;;;;;;;26.89;66.31;98970.39;181185;1264;42889;-60
2023/09/21 15:38:30;;;;;;;;;;;;;;;26.74;66.49;98961.73;181118;1265;42969;-60
2023/09/21 15:42:36;;;;;;;;;;;;;;;26.57;67.89;98960.56;181129;1263;57850;-60
2023/09/21 15:47:01;;;;;;;;;;;;;;;26.41;67.62;98957.84;181244;1264;42868;-61
2023/09/21 15:51:04;;;;;;;;;;;;;;;26.26;68.07;98955.19;181198;1264;42841;-60
2023/09/21 15:55:07;;;;;;;;;;;;;;;26.13;68.04;98945.86;181104;1264;43082;-60
2023/09/21 15:59:11;;;;;;;;;;;;;;;26.01;69.04;98944.25;181186;1264;42832;-61
2023/09/21 16:03:14;;;;;;;;;;;;;;;25.92;69.39;98949.03;181202;1264;57850;-61
2023/09/21 16:07:18;;;;;;;;;;;;;;;25.87;69.46;98949.05;181228;1263;42828;-61
2023/09/21 16:11:53;;;;;;;;;;;;;;;25.81;69.78;98946.92;181208;1264;42864;-60
2023/09/21 16:15:57;;;;;;;;;;;;;;;25.74;70.71;98944.26;181193;1264;42859;-60
2023/09/21 16:20:23;;;;;;;;;;;;;;;25.65;70.67;98943.96;181136;1264;43395;-61
2023/09/21 16:24:27;;;;;;;;;;;;;;;25.59;71.14;98942.94;181182;1264;59249;-62
2023/09/21 16:28:31;;;;;;;;;;;;;;;25.35;71.85;98945.00;181190;1264;42852;-63
2023/09/21 16:32:35;;;;;;;;;;;;;;;25.18;72.75;98947.99;181235;1264;43430;-61
2023/09/21 16:36:38;;;;;;;;;;;;;;;25.08;73.63;98944.88;181211;1264;42923;-60
2023/09/21 16:40:42;;;;;;;;;;;;;;;24.90;75.95;98943.91;181131;1264;43451;-60
2023/09/21 16:44:53;;;;;;;;;;;;;;;24.80;76.49;98936.02;181230;1264;59002;-60
2023/09/21 16:48:57;;;;;;;;;;;;;;;24.75;76.37;98931.54;181251;1264;42822;-60
2023/09/21 16:53:01;;;;;;;;;;;;;;;24.72;76.69;98928.55;181222;1267;43541;-61
2023/09/21 16:57:40;;;;;;;;;;;;;;;24.69;76.63;98928.51;181181;1264;43874;-60
2023/09/21 17:01:43;;;;;;;;;;;;;;;24.64;76.44;98930.08;181237;1264;43000;-61
2023/09/21 17:05:47;;;;;;;;;;;;;;;24.64;76.76;98923.66;181161;1266;60113;-60
2023/09/21 17:09:50;;;;;;;;;;;;;;;24.59;77.02;98924.95;181176;1266;42829;-59
2023/09/21 17:13:54;;;;;;;;;;;;;;;24.56;76.82;98919.37;181158;1267;42863;-61
2023/09/21 17:18:24;;;;;;;;;;;;;;;24.44;77.54;98914.01;181063;1266;42954;-61
2023/09/21 17:22:28;;;;;;;;;;;;;;;24.37;78.18;98910.30;181187;1266;43480;-60
2023/09/21 17:26:34;;;;;;;;;;;;;;;24.32;77.91;98906.22;181182;1264;58594;-61
2023/09/21 17:30:37;;;;;;;;;;;;;;;24.23;78.50;98901.87;181194;1265;42955;-61
2023/09/21 17:34:56;;;;;;;;;;;;;;;24.29;78.03;98908.09;181135;1266;42918;-61
2023/09/21 17:38:59;;;;;;;;;;;;;;;24.23;78.35;98911.21;181077;1267;42879;-63
2023/09/21 17:43:11;;;;;;;;;;;;;;;24.23;79.04;98916.48;181121;1264;42832;-62
2023/09/21 17:47:14;;;;;;;;;;;;;;;24.18;78.76;98914.51;181143;1264;57917;-62
2023/09/21 17:51:21;;;;;;;;;;;;;;;24.16;78.90;98917.95;181151;1265;42864;-62
2023/09/21 17:55:30;;;;;;;;;;;;;;;24.10;79.50;98912.92;181164;1266;42868;-62
2023/09/21 17:59:36;;;;;;;;;;;;;;;24.08;79.93;98908.92;181133;1265;42871;-61
2023/09/21 18:03:42;;;;;;;;;;;;;;;24.00;80.35;98900.80;181128;1266;42922;-61
2023/09/21 18:07:45;;;;;;;;;;;;;;;23.81;81.52;98900.02;181172;1264;57732;-62
2023/09/21 18:11:49;;;;;;;;;;;;;;;23.66;81.99;98900.33;181093;1264;43600;-61
2023/09/21 18:15:54;;;;;;;;;;;;;;;23.56;82.53;98901.35;181127;1265;42785;-62
2023/09/21 18:19:58;;;;;;;;;;;;;;;23.48;82.74;98898.61;181140;1264;43301;-60
2023/09/21 18:24:01;;;;;;;;;;;;;;;23.37;83.64;98904.61;181074;1264;43565;-61
2023/09/21 18:28:09;;;;;;;;;;;;;;;23.31;83.81;98901.31;181181;1265;58081;-60
2023/09/21 18:32:12;;;;;;;;;;;;;;;23.26;84.04;98897.67;181091;1265;42854;-62
2023/09/21 18:36:16;;;;;;;;;;;;;;;23.18;84.92;98897.40;181126;1265;42836;-61
2023/09/21 18:40:20;;;;;;;;;;;;;;;23.14;84.89;98894.06;181150;1265;43502;-61
2023/09/21 18:44:23;;;;;;;;;;;;;;;23.02;85.75;98897.34;181129;1265;43349;-61
2023/09/21 18:48:28;;;;;;;;;;;;;;;22.92;86.61;98898.16;181084;1267;57928;-61
2023/09/21 18:52:31;;;;;;;;;;;;;;;22.78;87.42;98894.95;180983;1265;43521;-61
2023/09/21 18:56:34;;;;;;;;;;;;;;;22.63;88.12;98892.77;181144;1265;42886;-61
2023/09/21 19:00:45;;;;;;;;;;;;;;;22.44;89.08;98887.35;181126;1264;43591;-61
2023/09/21 19:04:49;;;;;;;;;;;;;;;22.31;89.78;98885.39;181187;1263;42834;-61
2023/09/21 19:08:52;;;;;;;;;;;;;;;22.18;90.89;98884.04;181156;1264;57901;-61
2023/09/21 19:15:34;;;;;;;9.20;4.40;;;;;;;21.89;92.86;98882.09;175666;1291;567506;-89
2023/09/21 19:19:38;;;;;;;7.90;4.10;;;;;;;21.88;93.29;98874.80;179008;1266;59578;-89
2023/09/21 19:23:42;;;;;;;6.70;4.70;;;;;;;21.80;93.71;98866.88;180238;1253;44786;-89
2023/09/21 19:27:46;;;;;;;7.00;4.70;;;;;;;21.72;94.34;98860.42;180481;1253;263296;-89
2023/09/21 19:31:50;;;;;;;8.50;3.70;;;;;;;21.66;94.74;98853.88;180710;1252;46053;-89
2023/09/21 19:35:57;;;;;;;7.90;4.50;;;;;;;21.56;95.55;98850.85;180692;1251;43997;-90
2023/09/21 19:40:04;;;;;;;18.30;4.90;;;;;;;21.46;96.24;98849.02;181555;1250;57921;-90
2023/09/21 19:44:08;;;;;;;9.30;4.70;;;;;;;21.37;97.08;98841.37;180790;1251;48950;-89
2023/09/21 19:48:12;;;;;;;5.70;4.50;;;;;;;21.30;97.34;98837.41;180517;1251;44645;-89
2023/09/21 19:52:16;;;;;;;5.30;3.40;;;;;;;21.30;97.58;98833.34;180666;1252;45983;-90
2023/09/21 19:56:21;;;;;;;8.00;3.70;;;;;;;21.35;97.08;98830.91;180789;1251;44608;-90
2023/09/21 20:00:25;;;;;;;8.70;4.40;;;;;;;21.42;96.47;98827.69;180909;1251;58255;-90
2023/09/21 20:04:29;;;;;;;10.20;4.30;;;;;;;21.41;96.68;98822.80;180474;1251;46002;-89
2023/09/21 20:08:33;;;;;;;10.20;5.80;;;;;;;21.36;96.98;98820.67;180943;1251;44595;-89
2023/09/21 20:12:37;;;;;;;10.60;3.70;;;;;;;21.27;97.68;98811.53;181270;1255;46088;-90
2023/09/21 20:16:41;;;;;;;4.30;3.50;;;;;;;21.21;98.00;98810.63;180870;1251;45471;-90
2023/09/21 20:20:45;;;;;;;4.90;3.60;;;;;;;21.17;98.28;98808.64;180356;1251;60603;-90
2023/09/21 20:24:50;;;;;;;6.70;4.50;;;;;;;21.07;99.03;98802.93;180252;1253;46101;-90
2023/09/21 20:28:55;;;;;;;7.90;4.80;;;;;;;20.97;99.84;98806.41;180262;1251;46094;-90
2023/09/21 20:33:01;;;;;;;8.50;4.80;;;;;;;20.91;99.96;98802.85;180164;1250;45986;-91
2023/09/21 20:37:06;;;;;;;;;;;;;;;20.87;100.00;98800.36;180339;1251;48339;-90
2023/09/21 20:41:12;;;;;;;5.00;4.10;;;;;;;20.85;100.00;98798.80;180437;1251;57954;-90
2023/09/21 20:45:16;;;;;;;8.80;4.40;;;;;;;20.86;99.97;98802.20;180088;1251;45967;-90
2023/09/21 20:49:21;;;;;;;13.00;4.20;;;;;;;20.86;99.99;98798.06;180381;1251;45247;-90
2023/09/21 20:53:24;;;;;;;13.90;4.50;;;;;;;20.81;100.00;98798.27;180247;1253;44478;-90
2023/09/21 20:57:28;;;;;;;10.20;5.00;;;;;;;20.75;100.00;98795.46;180046;1251;44220;-90
2023/09/21 21:01:34;;;;;;;9.40;5.00;;;;;;;20.68;100.00;98788.28;179688;1251;59886;-90
2023/09/21 21:05:38;;;;;;;10.30;4.30;;;;;;;20.65;100.00;98783.55;179731;1251;45966;-90
2023/09/21 21:09:42;;;;;;;7.20;4.30;;;;;;;20.61;100.00;98783.10;180170;1252;46082;-90
2023/09/21 21:13:46;;;;;;;7.90;4.10;;;;;;;20.59;100.00;98780.35;179668;1251;46047;-90